sensor_id;sensor_type;location;lat;lon;timestamp;P1;durP1;ratioP1;P2;durP2;ratioP2
80621;SDS011;69980;51.914;7.526;2023-08-30T00:02:20;4.13;;;2.80;;
80621;SDS011;69980;51.914;7.526;2023-08-30T00:04:46;4.97;;;3.25;;
80621;SDS011;69980;51.914;7.526;2023-08-30T00:07:11;4.07;;;3.00;;
80621;SDS011;69980;51.914;7.526;2023-08-30T00:09:36;4.40;;;3.45;;
80621;SDS011;69980;51.914;7.526;2023-08-30T00:12:02;4.93;;;2.83;;
80621;SDS011;69980;51.914;7.526;2023-08-30T00:14:28;4.43;;;3.20;;
80621;SDS011;69980;51.914;7.526;2023-08-30T00:16:53;3.92;;;3.10;;
80621;SDS011;69980;51.914;7.526;2023-08-30T00:19:20;4.22;;;3.47;;
80621;SDS011;69980;51.914;7.526;2023-08-30T00:21:46;6.20;;;4.28;;
80621;SDS011;69980;51.914;7.526;2023-08-30T00:24:12;5.05;;;4.20;;
80621;SDS011;69980;51.914;7.526;2023-08-30T00:26:37;4.72;;;3.30;;
80621;SDS011;69980;51.914;7.526;2023-08-30T00:29:02;7.50;;;4.03;;
80621;SDS011;69980;51.914;7.526;2023-08-30T00:31:30;5.68;;;3.78;;
80621;SDS011;69980;51.914;7.526;2023-08-30T00:33:55;5.85;;;4.50;;
80621;SDS011;69980;51.914;7.526;2023-08-30T00:36:21;4.72;;;4.18;;
80621;SDS011;69980;51.914;7.526;2023-08-30T00:38:46;5.43;;;4.60;;
80621;SDS011;69980;51.914;7.526;2023-08-30T00:41:11;5.45;;;4.38;;
80621;SDS011;69980;51.914;7.526;2023-08-30T00:43:38;4.57;;;3.90;;
80621;SDS011;69980;51.914;7.526;2023-08-30T00:46:04;5.63;;;3.88;;
80621;SDS011;69980;51.914;7.526;2023-08-30T00:48:30;4.68;;;3.75;;
80621;SDS011;69980;51.914;7.526;2023-08-30T00:50:55;5.40;;;4.45;;
80621;SDS011;69980;51.914;7.526;2023-08-30T00:53:21;4.03;;;3.42;;
80621;SDS011;69980;51.914;7.526;2023-08-30T00:55:46;4.53;;;3.45;;
80621;SDS011;69980;51.914;7.526;2023-08-30T00:58:11;4.10;;;3.35;;
80621;SDS011;69980;51.914;7.526;2023-08-30T01:00:37;4.63;;;3.90;;
80621;SDS011;69980;51.914;7.526;2023-08-30T01:03:06;3.95;;;3.35;;
80621;SDS011;69980;51.914;7.526;2023-08-30T01:05:32;7.00;;;4.35;;
80621;SDS011;69980;51.914;7.526;2023-08-30T01:07:57;5.65;;;4.35;;
80621;SDS011;69980;51.914;7.526;2023-08-30T01:10:25;5.32;;;4.30;;
80621;SDS011;69980;51.914;7.526;2023-08-30T01:12:59;5.63;;;4.88;;
80621;SDS011;69980;51.914;7.526;2023-08-30T01:15:30;5.82;;;4.07;;
80621;SDS011;69980;51.914;7.526;2023-08-30T01:17:56;5.93;;;4.38;;
80621;SDS011;69980;51.914;7.526;2023-08-30T01:20:21;7.05;;;4.65;;
80621;SDS011;69980;51.914;7.526;2023-08-30T01:25:31;4.50;;;4.10;;
80621;SDS011;69980;51.914;7.526;2023-08-30T01:27:57;4.82;;;3.47;;
80621;SDS011;69980;51.914;7.526;2023-08-30T01:30:25;5.13;;;4.60;;
80621;SDS011;69980;51.914;7.526;2023-08-30T01:32:50;5.32;;;4.70;;
80621;SDS011;69980;51.914;7.526;2023-08-30T01:35:16;5.80;;;4.60;;
80621;SDS011;69980;51.914;7.526;2023-08-30T01:37:41;5.78;;;4.70;;
80621;SDS011;69980;51.914;7.526;2023-08-30T01:40:07;5.20;;;4.65;;
80621;SDS011;69980;51.914;7.526;2023-08-30T01:42:33;6.03;;;4.75;;
80621;SDS011;69980;51.914;7.526;2023-08-30T01:44:59;5.22;;;3.95;;
80621;SDS011;69980;51.914;7.526;2023-08-30T01:47:25;5.03;;;4.53;;
80621;SDS011;69980;51.914;7.526;2023-08-30T01:49:52;6.72;;;4.35;;
80621;SDS011;69980;51.914;7.526;2023-08-30T01:52:18;5.97;;;4.50;;
80621;SDS011;69980;51.914;7.526;2023-08-30T01:54:44;4.97;;;4.40;;
80621;SDS011;69980;51.914;7.526;2023-08-30T01:57:10;5.95;;;4.70;;
80621;SDS011;69980;51.914;7.526;2023-08-30T01:59:35;6.07;;;5.47;;
80621;SDS011;69980;51.914;7.526;2023-08-30T02:02:01;6.03;;;4.85;;
80621;SDS011;69980;51.914;7.526;2023-08-30T02:04:26;7.20;;;5.47;;
80621;SDS011;69980;51.914;7.526;2023-08-30T02:06:54;9.30;;;5.93;;
80621;SDS011;69980;51.914;7.526;2023-08-30T02:09:29;7.18;;;5.68;;
80621;SDS011;69980;51.914;7.526;2023-08-30T02:12:03;5.20;;;4.70;;
80621;SDS011;69980;51.914;7.526;2023-08-30T02:14:29;5.63;;;4.80;;
80621;SDS011;69980;51.914;7.526;2023-08-30T02:16:55;5.80;;;4.55;;
80621;SDS011;69980;51.914;7.526;2023-08-30T02:19:20;8.88;;;5.72;;
80621;SDS011;69980;51.914;7.526;2023-08-30T02:21:46;7.63;;;6.82;;
80621;SDS011;69980;51.914;7.526;2023-08-30T02:24:12;7.82;;;6.88;;
80621;SDS011;69980;51.914;7.526;2023-08-30T02:26:37;7.72;;;6.97;;
80621;SDS011;69980;51.914;7.526;2023-08-30T02:29:02;7.50;;;6.80;;
80621;SDS011;69980;51.914;7.526;2023-08-30T02:31:28;8.18;;;7.18;;
80621;SDS011;69980;51.914;7.526;2023-08-30T02:33:53;8.90;;;8.00;;
80621;SDS011;69980;51.914;7.526;2023-08-30T02:36:18;11.07;;;8.98;;
80621;SDS011;69980;51.914;7.526;2023-08-30T02:38:45;8.52;;;7.63;;
80621;SDS011;69980;51.914;7.526;2023-08-30T02:41:12;7.95;;;7.15;;
80621;SDS011;69980;51.914;7.526;2023-08-30T02:43:37;10.05;;;8.93;;
80621;SDS011;69980;51.914;7.526;2023-08-30T02:46:03;9.38;;;7.72;;
80621;SDS011;69980;51.914;7.526;2023-08-30T02:48:29;8.07;;;7.15;;
80621;SDS011;69980;51.914;7.526;2023-08-30T02:50:54;9.32;;;8.18;;
80621;SDS011;69980;51.914;7.526;2023-08-30T02:53:20;9.38;;;8.40;;
80621;SDS011;69980;51.914;7.526;2023-08-30T02:55:48;9.73;;;8.73;;
80621;SDS011;69980;51.914;7.526;2023-08-30T02:58:13;9.38;;;8.40;;
80621;SDS011;69980;51.914;7.526;2023-08-30T03:00:41;9.85;;;8.80;;
80621;SDS011;69980;51.914;7.526;2023-08-30T03:03:07;11.18;;;9.15;;
80621;SDS011;69980;51.914;7.526;2023-08-30T03:05:32;9.27;;;8.25;;
80621;SDS011;69980;51.914;7.526;2023-08-30T03:07:58;9.07;;;8.18;;
80621;SDS011;69980;51.914;7.526;2023-08-30T03:10:24;8.82;;;7.93;;
80621;SDS011;69980;51.914;7.526;2023-08-30T03:12:49;10.43;;;8.68;;
80621;SDS011;69980;51.914;7.526;2023-08-30T03:15:14;9.75;;;8.43;;
80621;SDS011;69980;51.914;7.526;2023-08-30T03:17:40;11.32;;;9.43;;
80621;SDS011;69980;51.914;7.526;2023-08-30T03:20:05;9.65;;;8.50;;
80621;SDS011;69980;51.914;7.526;2023-08-30T03:22:31;11.98;;;9.43;;
80621;SDS011;69980;51.914;7.526;2023-08-30T03:24:56;9.77;;;8.48;;
80621;SDS011;69980;51.914;7.526;2023-08-30T03:27:22;9.50;;;8.07;;
80621;SDS011;69980;51.914;7.526;2023-08-30T03:29:47;8.70;;;7.80;;
80621;SDS011;69980;51.914;7.526;2023-08-30T03:32:16;10.90;;;8.07;;
80621;SDS011;69980;51.914;7.526;2023-08-30T03:34:46;10.27;;;8.25;;
80621;SDS011;69980;51.914;7.526;2023-08-30T03:37:14;9.93;;;8.90;;
80621;SDS011;69980;51.914;7.526;2023-08-30T03:39:39;10.15;;;8.00;;
80621;SDS011;69980;51.914;7.526;2023-08-30T03:42:06;10.10;;;8.65;;
80621;SDS011;69980;51.914;7.526;2023-08-30T03:44:31;9.32;;;8.32;;
80621;SDS011;69980;51.914;7.526;2023-08-30T03:46:57;9.18;;;7.93;;
80621;SDS011;69980;51.914;7.526;2023-08-30T03:49:22;10.13;;;8.57;;
80621;SDS011;69980;51.914;7.526;2023-08-30T03:51:47;9.25;;;7.85;;
80621;SDS011;69980;51.914;7.526;2023-08-30T03:54:13;12.13;;;9.30;;
80621;SDS011;69980;51.914;7.526;2023-08-30T03:56:38;13.15;;;9.30;;
80621;SDS011;69980;51.914;7.526;2023-08-30T03:59:03;9.82;;;8.82;;
80621;SDS011;69980;51.914;7.526;2023-08-30T04:01:28;11.77;;;9.63;;
80621;SDS011;69980;51.914;7.526;2023-08-30T04:03:54;10.35;;;9.23;;
80621;SDS011;69980;51.914;7.526;2023-08-30T04:06:19;10.63;;;9.52;;
80621;SDS011;69980;51.914;7.526;2023-08-30T04:08:44;10.40;;;9.38;;
80621;SDS011;69980;51.914;7.526;2023-08-30T04:11:10;11.57;;;9.13;;
80621;SDS011;69980;51.914;7.526;2023-08-30T04:13:35;18.70;;;10.65;;
80621;SDS011;69980;51.914;7.526;2023-08-30T04:16:00;14.18;;;10.63;;
80621;SDS011;69980;51.914;7.526;2023-08-30T04:18:25;10.50;;;8.10;;
80621;SDS011;69980;51.914;7.526;2023-08-30T04:20:51;12.25;;;8.05;;
80621;SDS011;69980;51.914;7.526;2023-08-30T04:23:16;10.15;;;8.80;;
80621;SDS011;69980;51.914;7.526;2023-08-30T04:25:41;11.80;;;9.38;;
80621;SDS011;69980;51.914;7.526;2023-08-30T04:28:07;11.50;;;9.30;;
80621;SDS011;69980;51.914;7.526;2023-08-30T04:30:32;10.32;;;9.27;;
80621;SDS011;69980;51.914;7.526;2023-08-30T04:32:57;12.27;;;9.48;;
80621;SDS011;69980;51.914;7.526;2023-08-30T04:35:23;10.68;;;8.95;;
80621;SDS011;69980;51.914;7.526;2023-08-30T04:37:48;11.23;;;9.75;;
80621;SDS011;69980;51.914;7.526;2023-08-30T04:40:13;10.95;;;9.85;;
80621;SDS011;69980;51.914;7.526;2023-08-30T04:42:39;11.00;;;8.30;;
80621;SDS011;69980;51.914;7.526;2023-08-30T04:45:04;12.82;;;9.60;;
80621;SDS011;69980;51.914;7.526;2023-08-30T04:47:30;12.48;;;10.60;;
80621;SDS011;69980;51.914;7.526;2023-08-30T04:49:56;11.18;;;9.85;;
80621;SDS011;69980;51.914;7.526;2023-08-30T04:52:22;13.32;;;10.50;;
80621;SDS011;69980;51.914;7.526;2023-08-30T04:54:47;13.77;;;10.75;;
80621;SDS011;69980;51.914;7.526;2023-08-30T04:57:12;12.23;;;10.65;;
80621;SDS011;69980;51.914;7.526;2023-08-30T04:59:38;14.73;;;12.40;;
80621;SDS011;69980;51.914;7.526;2023-08-30T05:02:03;13.43;;;10.90;;
80621;SDS011;69980;51.914;7.526;2023-08-30T05:04:29;13.13;;;11.00;;
80621;SDS011;69980;51.914;7.526;2023-08-30T05:06:54;15.30;;;11.63;;
80621;SDS011;69980;51.914;7.526;2023-08-30T05:09:19;14.57;;;11.80;;
80621;SDS011;69980;51.914;7.526;2023-08-30T05:11:45;14.25;;;12.32;;
80621;SDS011;69980;51.914;7.526;2023-08-30T05:14:10;14.15;;;12.55;;
80621;SDS011;69980;51.914;7.526;2023-08-30T05:16:35;14.45;;;12.15;;
80621;SDS011;69980;51.914;7.526;2023-08-30T05:19:00;14.23;;;11.52;;
80621;SDS011;69980;51.914;7.526;2023-08-30T05:21:26;13.02;;;10.93;;
80621;SDS011;69980;51.914;7.526;2023-08-30T05:23:51;17.35;;;14.40;;
80621;SDS011;69980;51.914;7.526;2023-08-30T05:26:16;17.15;;;14.38;;
80621;SDS011;69980;51.914;7.526;2023-08-30T05:28:42;17.55;;;15.13;;
80621;SDS011;69980;51.914;7.526;2023-08-30T05:31:07;17.30;;;14.55;;
80621;SDS011;69980;51.914;7.526;2023-08-30T05:33:32;20.30;;;15.90;;
80621;SDS011;69980;51.914;7.526;2023-08-30T05:35:58;22.17;;;17.27;;
80621;SDS011;69980;51.914;7.526;2023-08-30T05:38:23;20.92;;;15.85;;
80621;SDS011;69980;51.914;7.526;2023-08-30T05:40:48;18.77;;;16.48;;
80621;SDS011;69980;51.914;7.526;2023-08-30T05:43:13;18.92;;;16.50;;
80621;SDS011;69980;51.914;7.526;2023-08-30T05:45:39;19.25;;;16.85;;
80621;SDS011;69980;51.914;7.526;2023-08-30T05:48:05;19.33;;;16.17;;
80621;SDS011;69980;51.914;7.526;2023-08-30T05:50:31;22.60;;;16.80;;
80621;SDS011;69980;51.914;7.526;2023-08-30T05:52:57;21.40;;;16.80;;
80621;SDS011;69980;51.914;7.526;2023-08-30T05:55:22;20.88;;;17.58;;
80621;SDS011;69980;51.914;7.526;2023-08-30T05:57:48;18.98;;;16.23;;
80621;SDS011;69980;51.914;7.526;2023-08-30T06:00:13;21.75;;;17.45;;
80621;SDS011;69980;51.914;7.526;2023-08-30T06:02:39;20.25;;;17.27;;
80621;SDS011;69980;51.914;7.526;2023-08-30T06:05:05;25.05;;;16.85;;
80621;SDS011;69980;51.914;7.526;2023-08-30T06:07:30;17.83;;;15.93;;
80621;SDS011;69980;51.914;7.526;2023-08-30T06:09:56;22.05;;;18.17;;
80621;SDS011;69980;51.914;7.526;2023-08-30T06:12:21;23.48;;;18.02;;
80621;SDS011;69980;51.914;7.526;2023-08-30T06:14:46;20.67;;;16.83;;
80621;SDS011;69980;51.914;7.526;2023-08-30T06:17:12;20.88;;;17.42;;
80621;SDS011;69980;51.914;7.526;2023-08-30T06:19:37;22.55;;;19.02;;
80621;SDS011;69980;51.914;7.526;2023-08-30T06:22:02;20.73;;;18.15;;
80621;SDS011;69980;51.914;7.526;2023-08-30T06:24:28;25.23;;;18.20;;
80621;SDS011;69980;51.914;7.526;2023-08-30T06:26:53;24.58;;;19.52;;
80621;SDS011;69980;51.914;7.526;2023-08-30T06:29:18;24.52;;;18.75;;
80621;SDS011;69980;51.914;7.526;2023-08-30T06:31:44;22.58;;;17.48;;
80621;SDS011;69980;51.914;7.526;2023-08-30T06:34:09;19.48;;;16.38;;
80621;SDS011;69980;51.914;7.526;2023-08-30T06:36:34;22.75;;;17.80;;
80621;SDS011;69980;51.914;7.526;2023-08-30T06:38:59;29.42;;;20.52;;
80621;SDS011;69980;51.914;7.526;2023-08-30T06:41:25;22.00;;;18.83;;
80621;SDS011;69980;51.914;7.526;2023-08-30T06:43:50;22.92;;;18.45;;
80621;SDS011;69980;51.914;7.526;2023-08-30T06:46:16;20.85;;;18.60;;
80621;SDS011;69980;51.914;7.526;2023-08-30T06:48:41;26.15;;;19.60;;
80621;SDS011;69980;51.914;7.526;2023-08-30T06:51:06;23.73;;;20.30;;
80621;SDS011;69980;51.914;7.526;2023-08-30T06:53:32;24.95;;;20.65;;
80621;SDS011;69980;51.914;7.526;2023-08-30T06:55:58;24.27;;;21.00;;
80621;SDS011;69980;51.914;7.526;2023-08-30T06:58:24;22.00;;;19.60;;
80621;SDS011;69980;51.914;7.526;2023-08-30T07:00:49;27.67;;;21.40;;
80621;SDS011;69980;51.914;7.526;2023-08-30T07:03:14;23.45;;;18.83;;
80621;SDS011;69980;51.914;7.526;2023-08-30T07:05:40;21.83;;;19.50;;
80621;SDS011;69980;51.914;7.526;2023-08-30T07:08:05;22.05;;;18.92;;
80621;SDS011;69980;51.914;7.526;2023-08-30T07:10:30;21.38;;;19.02;;
80621;SDS011;69980;51.914;7.526;2023-08-30T07:12:56;21.90;;;19.52;;
80621;SDS011;69980;51.914;7.526;2023-08-30T07:15:21;24.75;;;20.02;;
80621;SDS011;69980;51.914;7.526;2023-08-30T07:17:46;19.73;;;17.30;;
80621;SDS011;69980;51.914;7.526;2023-08-30T07:20:11;19.63;;;17.52;;
80621;SDS011;69980;51.914;7.526;2023-08-30T07:22:37;25.52;;;18.20;;
80621;SDS011;69980;51.914;7.526;2023-08-30T07:25:02;19.65;;;15.60;;
80621;SDS011;69980;51.914;7.526;2023-08-30T07:27:27;19.27;;;16.25;;
80621;SDS011;69980;51.914;7.526;2023-08-30T07:35:59;20.45;;;16.20;;
80621;SDS011;69980;51.914;7.526;2023-08-30T07:38:24;20.08;;;18.02;;
80621;SDS011;69980;51.914;7.526;2023-08-30T07:40:49;24.67;;;18.48;;
80621;SDS011;69980;51.914;7.526;2023-08-30T07:43:15;28.60;;;18.15;;
80621;SDS011;69980;51.914;7.526;2023-08-30T07:49:09;20.13;;;15.82;;
80621;SDS011;69980;51.914;7.526;2023-08-30T07:51:34;17.17;;;14.32;;
80621;SDS011;69980;51.914;7.526;2023-08-30T07:53:59;19.00;;;16.85;;
80621;SDS011;69980;51.914;7.526;2023-08-30T07:56:25;19.48;;;16.92;;
80621;SDS011;69980;51.914;7.526;2023-08-30T07:58:50;21.35;;;17.92;;
80621;SDS011;69980;51.914;7.526;2023-08-30T08:01:15;19.27;;;15.95;;
80621;SDS011;69980;51.914;7.526;2023-08-30T08:03:41;21.77;;;17.67;;
80621;SDS011;69980;51.914;7.526;2023-08-30T08:06:06;19.75;;;17.60;;
80621;SDS011;69980;51.914;7.526;2023-08-30T08:08:31;23.85;;;18.85;;
80621;SDS011;69980;51.914;7.526;2023-08-30T08:10:58;20.80;;;18.55;;
80621;SDS011;69980;51.914;7.526;2023-08-30T08:13:24;20.95;;;18.67;;
80621;SDS011;69980;51.914;7.526;2023-08-30T08:15:49;22.55;;;19.27;;
80621;SDS011;69980;51.914;7.526;2023-08-30T08:18:14;21.20;;;18.42;;
80621;SDS011;69980;51.914;7.526;2023-08-30T08:20:40;21.63;;;18.17;;
80621;SDS011;69980;51.914;7.526;2023-08-30T08:23:05;20.73;;;17.85;;
80621;SDS011;69980;51.914;7.526;2023-08-30T08:25:30;22.08;;;19.23;;
80621;SDS011;69980;51.914;7.526;2023-08-30T08:27:56;21.90;;;19.60;;
80621;SDS011;69980;51.914;7.526;2023-08-30T08:30:21;24.88;;;19.50;;
80621;SDS011;69980;51.914;7.526;2023-08-30T08:32:47;21.13;;;18.15;;
80621;SDS011;69980;51.914;7.526;2023-08-30T08:35:12;21.15;;;18.95;;
80621;SDS011;69980;51.914;7.526;2023-08-30T08:37:37;21.02;;;18.83;;
80621;SDS011;69980;51.914;7.526;2023-08-30T08:40:03;20.52;;;17.80;;
80621;SDS011;69980;51.914;7.526;2023-08-30T08:42:29;19.95;;;17.67;;
80621;SDS011;69980;51.914;7.526;2023-08-30T08:44:54;20.33;;;18.13;;
80621;SDS011;69980;51.914;7.526;2023-08-30T08:47:21;21.00;;;17.10;;
80621;SDS011;69980;51.914;7.526;2023-08-30T08:49:46;62.17;;;21.63;;
80621;SDS011;69980;51.914;7.526;2023-08-30T08:52:12;21.30;;;18.08;;
80621;SDS011;69980;51.914;7.526;2023-08-30T08:54:39;18.80;;;16.85;;
80621;SDS011;69980;51.914;7.526;2023-08-30T08:57:06;18.55;;;16.55;;
80621;SDS011;69980;51.914;7.526;2023-08-30T08:59:32;94.07;;;24.75;;
80621;SDS011;69980;51.914;7.526;2023-08-30T09:01:57;34.85;;;17.17;;
80621;SDS011;69980;51.914;7.526;2023-08-30T09:04:24;20.65;;;16.42;;
80621;SDS011;69980;51.914;7.526;2023-08-30T09:06:50;18.77;;;16.38;;
80621;SDS011;69980;51.914;7.526;2023-08-30T09:09:15;21.33;;;16.67;;
80621;SDS011;69980;51.914;7.526;2023-08-30T09:11:40;17.77;;;15.82;;
80621;SDS011;69980;51.914;7.526;2023-08-30T09:14:06;18.95;;;15.05;;
80621;SDS011;69980;51.914;7.526;2023-08-30T09:16:31;22.10;;;16.17;;
80621;SDS011;69980;51.914;7.526;2023-08-30T09:18:57;18.33;;;15.60;;
80621;SDS011;69980;51.914;7.526;2023-08-30T09:21:25;18.13;;;15.27;;
80621;SDS011;69980;51.914;7.526;2023-08-30T09:24:00;18.73;;;14.95;;
80621;SDS011;69980;51.914;7.526;2023-08-30T09:26:27;27.55;;;14.80;;
80621;SDS011;69980;51.914;7.526;2023-08-30T09:28:52;16.40;;;12.02;;
80621;SDS011;69980;51.914;7.526;2023-08-30T09:31:17;21.25;;;13.82;;
80621;SDS011;69980;51.914;7.526;2023-08-30T09:33:44;14.52;;;12.93;;
80621;SDS011;69980;51.914;7.526;2023-08-30T09:36:10;15.38;;;12.38;;
80621;SDS011;69980;51.914;7.526;2023-08-30T09:38:36;13.60;;;12.20;;
80621;SDS011;69980;51.914;7.526;2023-08-30T09:41:02;14.77;;;12.02;;
80621;SDS011;69980;51.914;7.526;2023-08-30T09:43:28;14.52;;;11.93;;
80621;SDS011;69980;51.914;7.526;2023-08-30T09:45:53;14.50;;;11.43;;
80621;SDS011;69980;51.914;7.526;2023-08-30T09:48:22;16.65;;;11.77;;
80621;SDS011;69980;51.914;7.526;2023-08-30T09:50:47;13.98;;;10.77;;
80621;SDS011;69980;51.914;7.526;2023-08-30T09:53:18;14.75;;;11.85;;
80621;SDS011;69980;51.914;7.526;2023-08-30T09:55:45;13.52;;;12.02;;
80621;SDS011;69980;51.914;7.526;2023-08-30T09:58:10;15.02;;;11.40;;
80621;SDS011;69980;51.914;7.526;2023-08-30T10:00:36;13.35;;;10.50;;
80621;SDS011;69980;51.914;7.526;2023-08-30T10:03:03;18.55;;;10.63;;
80621;SDS011;69980;51.914;7.526;2023-08-30T10:05:29;13.40;;;10.50;;
80621;SDS011;69980;51.914;7.526;2023-08-30T10:07:54;19.02;;;9.77;;
80621;SDS011;69980;51.914;7.526;2023-08-30T10:10:20;11.85;;;9.48;;
80621;SDS011;69980;51.914;7.526;2023-08-30T10:12:47;10.68;;;8.23;;
80621;SDS011;69980;51.914;7.526;2023-08-30T10:15:13;10.50;;;8.00;;
80621;SDS011;69980;51.914;7.526;2023-08-30T10:17:38;8.90;;;7.47;;
80621;SDS011;69980;51.914;7.526;2023-08-30T10:20:06;13.32;;;7.07;;
80621;SDS011;69980;51.914;7.526;2023-08-30T10:22:32;11.38;;;6.18;;
80621;SDS011;69980;51.914;7.526;2023-08-30T10:25:05;9.30;;;6.10;;
80621;SDS011;69980;51.914;7.526;2023-08-30T10:27:33;8.38;;;6.22;;
80621;SDS011;69980;51.914;7.526;2023-08-30T10:30:02;7.13;;;5.90;;
80621;SDS011;69980;51.914;7.526;2023-08-30T10:32:29;8.82;;;6.18;;
80621;SDS011;69980;51.914;7.526;2023-08-30T10:34:54;11.55;;;6.15;;
80621;SDS011;69980;51.914;7.526;2023-08-30T10:37:23;9.20;;;6.03;;
80621;SDS011;69980;51.914;7.526;2023-08-30T10:39:51;8.00;;;6.22;;
80621;SDS011;69980;51.914;7.526;2023-08-30T10:42:16;8.13;;;6.38;;
80621;SDS011;69980;51.914;7.526;2023-08-30T10:44:48;9.73;;;7.00;;
80621;SDS011;69980;51.914;7.526;2023-08-30T10:47:24;11.60;;;8.13;;
80621;SDS011;69980;51.914;7.526;2023-08-30T10:49:50;10.95;;;8.77;;
80621;SDS011;69980;51.914;7.526;2023-08-30T10:52:15;21.05;;;9.45;;
80621;SDS011;69980;51.914;7.526;2023-08-30T10:54:40;10.40;;;7.88;;
80621;SDS011;69980;51.914;7.526;2023-08-30T10:57:12;11.40;;;8.35;;
80621;SDS011;69980;51.914;7.526;2023-08-30T11:02:32;10.05;;;8.18;;
80621;SDS011;69980;51.914;7.526;2023-08-30T11:04:57;10.50;;;8.48;;
80621;SDS011;69980;51.914;7.526;2023-08-30T11:07:26;9.10;;;8.18;;
80621;SDS011;69980;51.914;7.526;2023-08-30T11:09:52;9.40;;;8.07;;
80621;SDS011;69980;51.914;7.526;2023-08-30T11:12:18;8.70;;;7.35;;
80621;SDS011;69980;51.914;7.526;2023-08-30T11:14:46;8.55;;;7.50;;
80621;SDS011;69980;51.914;7.526;2023-08-30T11:17:12;10.07;;;7.40;;
80621;SDS011;69980;51.914;7.526;2023-08-30T11:19:37;10.30;;;6.72;;
80621;SDS011;69980;51.914;7.526;2023-08-30T11:22:02;9.48;;;6.32;;
80621;SDS011;69980;51.914;7.526;2023-08-30T11:24:28;6.57;;;5.43;;
80621;SDS011;69980;51.914;7.526;2023-08-30T11:26:54;7.80;;;5.22;;
80621;SDS011;69980;51.914;7.526;2023-08-30T11:29:19;7.53;;;5.65;;
80621;SDS011;69980;51.914;7.526;2023-08-30T11:31:44;8.98;;;5.40;;
80621;SDS011;69980;51.914;7.526;2023-08-30T11:34:10;7.18;;;4.75;;
80621;SDS011;69980;51.914;7.526;2023-08-30T11:36:35;7.35;;;5.18;;
80621;SDS011;69980;51.914;7.526;2023-08-30T11:39:01;7.28;;;5.25;;
80621;SDS011;69980;51.914;7.526;2023-08-30T11:41:27;6.55;;;5.18;;
80621;SDS011;69980;51.914;7.526;2023-08-30T11:43:53;7.53;;;5.65;;
80621;SDS011;69980;51.914;7.526;2023-08-30T11:46:19;7.53;;;5.50;;
80621;SDS011;69980;51.914;7.526;2023-08-30T11:48:45;8.13;;;5.75;;
80621;SDS011;69980;51.914;7.526;2023-08-30T11:51:11;8.20;;;5.68;;
80621;SDS011;69980;51.914;7.526;2023-08-30T11:53:37;11.80;;;6.47;;
80621;SDS011;69980;51.914;7.526;2023-08-30T11:56:03;8.82;;;6.43;;
80621;SDS011;69980;51.914;7.526;2023-08-30T11:58:36;7.55;;;5.90;;
80621;SDS011;69980;51.914;7.526;2023-08-30T12:01:02;8.40;;;6.40;;
80621;SDS011;69980;51.914;7.526;2023-08-30T12:03:28;7.65;;;6.18;;
80621;SDS011;69980;51.914;7.526;2023-08-30T12:05:56;7.05;;;6.30;;
80621;SDS011;69980;51.914;7.526;2023-08-30T12:08:29;7.97;;;6.13;;
80621;SDS011;69980;51.914;7.526;2023-08-30T12:10:56;8.90;;;6.47;;
80621;SDS011;69980;51.914;7.526;2023-08-30T12:13:26;8.15;;;6.85;;
80621;SDS011;69980;51.914;7.526;2023-08-30T12:15:52;8.70;;;6.60;;
80621;SDS011;69980;51.914;7.526;2023-08-30T12:18:22;15.77;;;6.75;;
80621;SDS011;69980;51.914;7.526;2023-08-30T12:20:58;9.68;;;7.70;;
80621;SDS011;69980;51.914;7.526;2023-08-30T12:23:25;8.25;;;7.40;;
80621;SDS011;69980;51.914;7.526;2023-08-30T12:28:22;7.28;;;6.45;;
80621;SDS011;69980;51.914;7.526;2023-08-30T12:30:47;8.32;;;6.88;;
80621;SDS011;69980;51.914;7.526;2023-08-30T12:33:15;8.77;;;7.20;;
80621;SDS011;69980;51.914;7.526;2023-08-30T12:35:41;8.50;;;7.10;;
80621;SDS011;69980;51.914;7.526;2023-08-30T12:38:06;7.47;;;6.28;;
80621;SDS011;69980;51.914;7.526;2023-08-30T12:40:31;8.35;;;6.85;;
80621;SDS011;69980;51.914;7.526;2023-08-30T12:42:57;7.82;;;7.13;;
80621;SDS011;69980;51.914;7.526;2023-08-30T12:45:22;9.02;;;7.15;;
80621;SDS011;69980;51.914;7.526;2023-08-30T12:47:47;7.40;;;6.40;;
80621;SDS011;69980;51.914;7.526;2023-08-30T12:50:13;7.28;;;6.50;;
80621;SDS011;69980;51.914;7.526;2023-08-30T12:52:38;6.90;;;6.20;;
80621;SDS011;69980;51.914;7.526;2023-08-30T12:55:03;6.80;;;6.03;;
80621;SDS011;69980;51.914;7.526;2023-08-30T12:57:29;7.00;;;6.30;;
80621;SDS011;69980;51.914;7.526;2023-08-30T12:59:54;7.10;;;6.30;;
80621;SDS011;69980;51.914;7.526;2023-08-30T13:02:19;6.28;;;5.68;;
80621;SDS011;69980;51.914;7.526;2023-08-30T13:04:45;6.55;;;5.95;;
80621;SDS011;69980;51.914;7.526;2023-08-30T13:07:10;8.23;;;6.88;;
80621;SDS011;69980;51.914;7.526;2023-08-30T13:09:35;6.65;;;5.95;;
80621;SDS011;69980;51.914;7.526;2023-08-30T13:12:01;6.45;;;5.82;;
80621;SDS011;69980;51.914;7.526;2023-08-30T13:14:26;30.05;;;9.52;;
80621;SDS011;69980;51.914;7.526;2023-08-30T13:16:51;9.50;;;6.47;;
80621;SDS011;69980;51.914;7.526;2023-08-30T13:19:17;7.35;;;5.63;;
80621;SDS011;69980;51.914;7.526;2023-08-30T13:21:42;7.80;;;6.10;;
80621;SDS011;69980;51.914;7.526;2023-08-30T13:24:07;7.55;;;6.28;;
80621;SDS011;69980;51.914;7.526;2023-08-30T13:26:32;27.73;;;7.97;;
80621;SDS011;69980;51.914;7.526;2023-08-30T13:28:58;7.57;;;5.70;;
80621;SDS011;69980;51.914;7.526;2023-08-30T13:31:23;7.40;;;6.28;;
80621;SDS011;69980;51.914;7.526;2023-08-30T13:33:48;8.73;;;6.68;;
80621;SDS011;69980;51.914;7.526;2023-08-30T13:36:14;34.75;;;9.40;;
80621;SDS011;69980;51.914;7.526;2023-08-30T13:38:39;42.83;;;9.43;;
80621;SDS011;69980;51.914;7.526;2023-08-30T13:41:04;26.02;;;9.93;;
80621;SDS011;69980;51.914;7.526;2023-08-30T13:43:29;14.85;;;8.13;;
80621;SDS011;69980;51.914;7.526;2023-08-30T13:45:58;8.55;;;7.75;;
80621;SDS011;69980;51.914;7.526;2023-08-30T13:48:24;8.38;;;7.57;;
80621;SDS011;69980;51.914;7.526;2023-08-30T13:50:50;14.48;;;8.38;;
80621;SDS011;69980;51.914;7.526;2023-08-30T13:53:15;9.45;;;8.10;;
80621;SDS011;69980;51.914;7.526;2023-08-30T13:55:44;9.75;;;8.75;;
80621;SDS011;69980;51.914;7.526;2023-08-30T13:58:10;15.82;;;8.73;;
80621;SDS011;69980;51.914;7.526;2023-08-30T14:00:35;29.48;;;10.43;;
80621;SDS011;69980;51.914;7.526;2023-08-30T14:03:01;9.65;;;8.68;;
80621;SDS011;69980;51.914;7.526;2023-08-30T14:05:26;9.48;;;8.68;;
80621;SDS011;69980;51.914;7.526;2023-08-30T14:07:51;9.80;;;8.80;;
80621;SDS011;69980;51.914;7.526;2023-08-30T14:10:16;9.02;;;8.23;;
80621;SDS011;69980;51.914;7.526;2023-08-30T14:12:42;17.65;;;9.20;;
80621;SDS011;69980;51.914;7.526;2023-08-30T14:15:07;9.13;;;8.15;;
80621;SDS011;69980;51.914;7.526;2023-08-30T14:17:33;8.55;;;7.75;;
80621;SDS011;69980;51.914;7.526;2023-08-30T14:19:58;11.40;;;8.60;;
80621;SDS011;69980;51.914;7.526;2023-08-30T14:22:23;35.67;;;11.20;;
80621;SDS011;69980;51.914;7.526;2023-08-30T14:24:48;47.00;;;10.63;;
80621;SDS011;69980;51.914;7.526;2023-08-30T14:27:14;9.30;;;7.70;;
80621;SDS011;69980;51.914;7.526;2023-08-30T14:29:39;16.13;;;8.48;;
80621;SDS011;69980;51.914;7.526;2023-08-30T14:32:04;68.68;;;14.18;;
80621;SDS011;69980;51.914;7.526;2023-08-30T14:34:30;13.43;;;8.05;;
80621;SDS011;69980;51.914;7.526;2023-08-30T14:36:55;7.63;;;6.82;;
80621;SDS011;69980;51.914;7.526;2023-08-30T14:39:20;144.95;;;21.42;;
80621;SDS011;69980;51.914;7.526;2023-08-30T14:41:46;12.13;;;7.78;;
80621;SDS011;69980;51.914;7.526;2023-08-30T14:44:11;7.63;;;6.85;;
80621;SDS011;69980;51.914;7.526;2023-08-30T14:46:36;7.35;;;6.57;;